sensor_id;sensor_type;location;lat;lon;timestamp;pressure;altitude;pressure_sealevel;temperature;humidity
13420;BME280;6781;58.440;15.470;2023-04-07T00:11:21;102459.69;;;-1.81;100.00
13420;BME280;6781;58.440;15.470;2023-04-07T00:13:48;102469.03;;;-1.76;100.00
13420;BME280;6781;58.440;15.470;2023-04-07T00:16:34;102464.78;;;-1.75;100.00
13420;BME280;6781;58.440;15.470;2023-04-07T00:19:23;102458.00;;;-1.79;100.00
13420;BME280;6781;58.440;15.470;2023-04-07T00:22:04;102454.59;;;-1.86;100.00
13420;BME280;6781;58.440;15.470;2023-04-07T00:24:44;102456.28;;;-1.86;100.00
13420;BME280;6781;58.440;15.470;2023-04-07T00:27:14;102456.28;;;-1.88;100.00
13420;BME280;6781;58.440;15.470;2023-04-07T00:29:44;102467.28;;;-1.97;100.00
13420;BME280;6781;58.440;15.470;2023-04-07T00:32:14;102460.47;;;-2.02;100.00
13420;BME280;6781;58.440;15.470;2023-04-07T00:34:43;102457.94;;;-2.04;100.00
13420;BME280;6781;58.440;15.470;2023-04-07T00:37:23;102468.13;;;-1.94;100.00
13420;BME280;6781;58.440;15.470;2023-04-07T00:39:54;102468.13;;;-1.91;100.00
13420;BME280;6781;58.440;15.470;2023-04-07T00:42:32;102307.63;;;-3.13;100.00
13420;BME280;6781;58.440;15.470;2023-04-07T00:45:12;102455.38;;;-2.05;100.00
13420;BME280;6781;58.440;15.470;2023-04-07T00:47:40;102457.06;;;-2.07;100.00
13420;BME280;6781;58.440;15.470;2023-04-07T00:50:08;102457.06;;;-2.07;100.00
13420;BME280;6781;58.440;15.470;2023-04-07T00:52:37;102457.91;;;-2.07;100.00
13420;BME280;6781;58.440;15.470;2023-04-07T00:55:05;102460.47;;;-2.04;100.00
13420;BME280;6781;58.440;15.470;2023-04-07T00:57:40;102457.91;;;-2.07;100.00
13420;BME280;6781;58.440;15.470;2023-04-07T01:00:08;102461.31;;;-2.08;100.00
13420;BME280;6781;58.440;15.470;2023-04-07T01:02:35;102456.22;;;-2.09;100.00
13420;BME280;6781;58.440;15.470;2023-04-07T01:05:09;102458.78;;;-2.05;100.00
13420;BME280;6781;58.440;15.470;2023-04-07T01:07:39;102452.84;;;-2.10;100.00
13420;BME280;6781;58.440;15.470;2023-04-07T01:10:11;102448.56;;;-2.17;100.00
13420;BME280;6781;58.440;15.470;2023-04-07T01:12:43;102442.63;;;-2.19;100.00
13420;BME280;6781;58.440;15.470;2023-04-07T01:15:13;102447.72;;;-2.16;100.00
13420;BME280;6781;58.440;15.470;2023-04-07T01:17:44;102441.78;;;-2.22;100.00
13420;BME280;6781;58.440;15.470;2023-04-07T01:20:13;102452.78;;;-2.20;100.00
13420;BME280;6781;58.440;15.470;2023-04-07T01:22:42;102440.91;;;-2.26;100.00
13420;BME280;6781;58.440;15.470;2023-04-07T01:25:17;102440.06;;;-2.22;100.00
13420;BME280;6781;58.440;15.470;2023-04-07T01:27:57;102430.69;;;-2.41;100.00
13420;BME280;6781;58.440;15.470;2023-04-07T01:30:26;102431.56;;;-2.35;100.00
13420;BME280;6781;58.440;15.470;2023-04-07T01:32:54;102435.81;;;-2.32;100.00
13420;BME280;6781;58.440;15.470;2023-04-07T01:35:21;102434.13;;;-2.30;100.00
13420;BME280;6781;58.440;15.470;2023-04-07T01:37:51;102436.59;;;-2.42;100.00
13420;BME280;6781;58.440;15.470;2023-04-07T01:40:18;102434.91;;;-2.45;100.00
13420;BME280;6781;58.440;15.470;2023-04-07T01:42:46;102425.50;;;-2.63;100.00
13420;BME280;6781;58.440;15.470;2023-04-07T01:45:14;102429.75;;;-2.57;100.00
13420;BME280;6781;58.440;15.470;2023-04-07T01:47:43;102434.78;;;-2.69;100.00
13420;BME280;6781;58.440;15.470;2023-04-07T01:50:11;102424.56;;;-2.77;100.00
13420;BME280;6781;58.440;15.470;2023-04-07T01:52:38;102419.44;;;-2.84;100.00
13420;BME280;6781;58.440;15.470;2023-04-07T01:55:05;102416.00;;;-2.94;100.00
13420;BME280;6781;58.440;15.470;2023-04-07T01:57:33;102413.34;;;-3.12;100.00
13420;BME280;6781;58.440;15.470;2023-04-07T02:00:00;102421.00;;;-3.03;100.00
13420;BME280;6781;58.440;15.470;2023-04-07T02:02:28;102416.75;;;-3.10;100.00
13420;BME280;6781;58.440;15.470;2023-04-07T02:07:34;102426.94;;;-3.01;100.00
13420;BME280;6781;58.440;15.470;2023-04-07T02:10:05;102435.34;;;-3.08;100.00
13420;BME280;6781;58.440;15.470;2023-04-07T02:12:34;102427.66;;;-3.22;100.00
13420;BME280;6781;58.440;15.470;2023-04-07T02:15:04;102435.28;;;-3.17;100.00
13420;BME280;6781;58.440;15.470;2023-04-07T02:17:32;102441.22;;;-3.17;100.00
13420;BME280;6781;58.440;15.470;2023-04-07T02:20:00;102450.66;;;-2.99;100.00
13420;BME280;6781;58.440;15.470;2023-04-07T02:22:28;102454.09;;;-2.88;100.00
13420;BME280;6781;58.440;15.470;2023-04-07T02:24:57;102467.69;;;-2.83;100.00
13420;BME280;6781;58.440;15.470;2023-04-07T02:27:24;102466.00;;;-2.81;100.00
13420;BME280;6781;58.440;15.470;2023-04-07T02:29:51;102474.47;;;-2.82;100.00
13420;BME280;6781;58.440;15.470;2023-04-07T02:32:18;102472.75;;;-2.83;100.00
13420;BME280;6781;58.440;15.470;2023-04-07T02:34:45;102470.19;;;-2.86;100.00
13420;BME280;6781;58.440;15.470;2023-04-07T02:37:12;102474.47;;;-2.82;100.00
13420;BME280;6781;58.440;15.470;2023-04-07T02:39:39;102475.31;;;-2.78;100.00
13420;BME280;6781;58.440;15.470;2023-04-07T02:42:07;102469.28;;;-2.97;100.00
13420;BME280;6781;58.440;15.470;2023-04-07T02:44:34;102459.94;;;-3.00;100.00
13420;BME280;6781;58.440;15.470;2023-04-07T02:47:00;102444.63;;;-3.12;100.00
13420;BME280;6781;58.440;15.470;2023-04-07T02:49:27;102440.38;;;-3.17;100.00
13420;BME280;6781;58.440;15.470;2023-04-07T02:51:54;102442.88;;;-3.20;100.00
13420;BME280;6781;58.440;15.470;2023-04-07T02:54:20;102447.09;;;-3.19;100.00
13420;BME280;6781;58.440;15.470;2023-04-07T02:56:47;102443.81;;;-3.09;100.00
13420;BME280;6781;58.440;15.470;2023-04-07T02:59:15;102443.69;;;-3.24;100.00
13420;BME280;6781;58.440;15.470;2023-04-07T03:01:42;102441.97;;;-3.25;100.00
13420;BME280;6781;58.440;15.470;2023-04-07T03:04:09;102447.88;;;-3.28;100.00
13420;BME280;6781;58.440;15.470;2023-04-07T03:06:36;102443.56;;;-3.40;100.00
13420;BME280;6781;58.440;15.470;2023-04-07T03:09:04;102438.44;;;-3.46;100.00
13420;BME280;6781;58.440;15.470;2023-04-07T03:11:30;102445.28;;;-3.34;100.00
13420;BME280;6781;58.440;15.470;2023-04-07T03:13:57;102452.00;;;-3.39;100.00
13420;BME280;6781;58.440;15.470;2023-04-07T03:16:26;102451.97;;;-3.47;100.00
13420;BME280;6781;58.440;15.470;2023-04-07T03:18:52;102447.63;;;-3.58;100.00
13420;BME280;6781;58.440;15.470;2023-04-07T03:21:19;102446.06;;;-3.47;100.00
13420;BME280;6781;58.440;15.470;2023-04-07T03:23:46;102449.34;;;-3.56;100.00
13420;BME280;6781;58.440;15.470;2023-04-07T03:26:13;102444.25;;;-3.59;100.00
13420;BME280;6781;58.440;15.470;2023-04-07T03:28:39;102452.72;;;-3.57;100.00
13420;BME280;6781;58.440;15.470;2023-04-07T03:31:06;102455.31;;;-3.51;100.00
13420;BME280;6781;58.440;15.470;2023-04-07T03:33:34;102452.69;;;-3.60;100.00
13420;BME280;6781;58.440;15.470;2023-04-07T03:36:01;102462.91;;;-3.52;100.00
13420;BME280;6781;58.440;15.470;2023-04-07T03:38:28;102461.22;;;-3.53;100.00
13420;BME280;6781;58.440;15.470;2023-04-07T03:40:55;102464.53;;;-3.59;100.00
13420;BME280;6781;58.440;15.470;2023-04-07T03:43:21;102475.34;;;-3.75;100.00
13420;BME280;6781;58.440;15.470;2023-04-07T03:45:48;102474.63;;;-3.65;100.00
13420;BME280;6781;58.440;15.470;2023-04-07T03:48:15;102477.16;;;-3.65;100.00
13420;BME280;6781;58.440;15.470;2023-04-07T03:50:44;102475.44;;;-3.66;100.00
13420;BME280;6781;58.440;15.470;2023-04-07T03:53:11;102484.84;;;-3.57;100.00
13420;BME280;6781;58.440;15.470;2023-04-07T03:55:39;102484.81;;;-3.61;100.00
13420;BME280;6781;58.440;15.470;2023-04-07T03:58:06;102478.78;;;-3.70;100.00
13420;BME280;6781;58.440;15.470;2023-04-07T04:00:34;102476.19;;;-3.76;100.00
13420;BME280;6781;58.440;15.470;2023-04-07T04:03:01;102479.63;;;-3.71;100.00
13420;BME280;6781;58.440;15.470;2023-04-07T04:05:28;102480.47;;;-3.72;100.00
13420;BME280;6781;58.440;15.470;2023-04-07T04:07:56;102477.06;;;-3.74;100.00
13420;BME280;6781;58.440;15.470;2023-04-07T04:10:23;102483.81;;;-3.75;100.00
13420;BME280;6781;58.440;15.470;2023-04-07T04:12:50;102478.72;;;-3.76;100.00
13420;BME280;6781;58.440;15.470;2023-04-07T04:15:16;102487.13;;;-3.80;100.00
13420;BME280;6781;58.440;15.470;2023-04-07T04:17:43;102482.72;;;-3.95;100.00
13420;BME280;6781;58.440;15.470;2023-04-07T04:20:10;102482.88;;;-3.81;100.00
13420;BME280;6781;58.440;15.470;2023-04-07T04:22:37;102493.16;;;-3.71;100.00
13420;BME280;6781;58.440;15.470;2023-04-07T04:25:06;102500.84;;;-3.63;100.00
13420;BME280;6781;58.440;15.470;2023-04-07T04:27:32;102503.47;;;-3.54;100.00
13420;BME280;6781;58.440;15.470;2023-04-07T04:29:59;102498.41;;;-3.54;100.00
13420;BME280;6781;58.440;15.470;2023-04-07T04:32:26;102505.16;;;-3.54;100.00
13420;BME280;6781;58.440;15.470;2023-04-07T04:34:53;102509.38;;;-3.55;100.00
13420;BME280;6781;58.440;15.470;2023-04-07T04:37:20;102508.53;;;-3.52;100.00
13420;BME280;6781;58.440;15.470;2023-04-07T04:39:46;102507.72;;;-3.50;100.00
13420;BME280;6781;58.440;15.470;2023-04-07T04:42:14;102506.06;;;-3.48;100.00
13420;BME280;6781;58.440;15.470;2023-04-07T04:44:42;102513.66;;;-3.49;100.00
13420;BME280;6781;58.440;15.470;2023-04-07T04:47:09;102504.25;;;-3.58;100.00
13420;BME280;6781;58.440;15.470;2023-04-07T04:49:36;102505.16;;;-3.54;100.00
13420;BME280;6781;58.440;15.470;2023-04-07T04:52:02;102516.19;;;-3.45;100.00
13420;BME280;6781;58.440;15.470;2023-04-07T04:54:29;102521.34;;;-3.39;100.00
13420;BME280;6781;58.440;15.470;2023-04-07T04:56:57;102523.94;;;-3.31;100.00
13420;BME280;6781;58.440;15.470;2023-04-07T04:59:25;102523.91;;;-3.36;100.00
13420;BME280;6781;58.440;15.470;2023-04-07T05:01:52;102524.88;;;-3.21;100.00
13420;BME280;6781;58.440;15.470;2023-04-07T05:04:18;102530.91;;;-3.10;100.00
13420;BME280;6781;58.440;15.470;2023-04-07T05:06:45;102534.34;;;-3.05;100.00
13420;BME280;6781;58.440;15.470;2023-04-07T05:09:12;102531.03;;;-2.97;100.00
13420;BME280;6781;58.440;15.470;2023-04-07T05:11:40;102530.16;;;-3.00;100.00
13420;BME280;6781;58.440;15.470;2023-04-07T05:14:07;102524.34;;;-2.87;100.00
13420;BME280;6781;58.440;15.470;2023-04-07T05:16:35;102526.91;;;-2.81;100.00
13420;BME280;6781;58.440;15.470;2023-04-07T05:19:01;102532.94;;;-2.67;100.00
13420;BME280;6781;58.440;15.470;2023-04-07T05:21:28;102526.16;;;-2.71;100.00
13420;BME280;6781;58.440;15.470;2023-04-07T05:23:55;102524.56;;;-2.58;100.00
13420;BME280;6781;58.440;15.470;2023-04-07T05:26:22;102522.88;;;-2.56;100.00
13420;BME280;6781;58.440;15.470;2023-04-07T05:28:49;102521.16;;;-2.60;100.00
13420;BME280;6781;58.440;15.470;2023-04-07T05:31:15;102517.00;;;-2.47;100.00
13420;BME280;6781;58.440;15.470;2023-04-07T05:33:44;102521.28;;;-2.39;100.00
13420;BME280;6781;58.440;15.470;2023-04-07T05:36:13;102525.56;;;-2.30;100.00
13420;BME280;6781;58.440;15.470;2023-04-07T05:38:40;102526.41;;;-2.31;100.00
13420;BME280;6781;58.440;15.470;2023-04-07T05:41:07;102528.16;;;-2.21;100.00
13420;BME280;6781;58.440;15.470;2023-04-07T05:43:34;102525.63;;;-2.19;100.00
13420;BME280;6781;58.440;15.470;2023-04-07T05:46:01;102538.38;;;-2.12;100.00
13420;BME280;6781;58.440;15.470;2023-04-07T05:48:27;102535.88;;;-2.04;100.00
13420;BME280;6781;58.440;15.470;2023-04-07T05:50:56;102532.50;;;-2.02;100.00
13420;BME280;6781;58.440;15.470;2023-04-07T05:53:22;102540.97;;;-2.00;100.00
13420;BME280;6781;58.440;15.470;2023-04-07T05:55:49;102537.63;;;-1.92;100.00
13420;BME280;6781;58.440;15.470;2023-04-07T05:58:16;102535.09;;;-1.88;100.00
13420;BME280;6781;58.440;15.470;2023-04-07T06:00:50;102531.75;;;-1.79;100.00
13420;BME280;6781;58.440;15.470;2023-04-07T06:03:19;102535.13;;;-1.80;100.00
13420;BME280;6781;58.440;15.470;2023-04-07T06:05:46;102541.06;;;-1.83;100.00
13420;BME280;6781;58.440;15.470;2023-04-07T06:08:16;102544.47;;;-1.76;100.00
13420;BME280;6781;58.440;15.470;2023-04-07T06:10:43;102547.00;;;-1.69;100.00
13420;BME280;6781;58.440;15.470;2023-04-07T06:13:11;102554.66;;;-1.61;100.00
13420;BME280;6781;58.440;15.470;2023-04-07T06:15:38;102553.00;;;-1.53;100.00
13420;BME280;6781;58.440;15.470;2023-04-07T06:18:08;102547.91;;;-1.47;100.00
13420;BME280;6781;58.440;15.470;2023-04-07T06:20:35;102554.72;;;-1.43;100.00
13420;BME280;6781;58.440;15.470;2023-04-07T06:23:02;102554.72;;;-1.46;100.00
13420;BME280;6781;58.440;15.470;2023-04-07T06:25:31;102560.69;;;-1.33;100.00
13420;BME280;6781;58.440;15.470;2023-04-07T06:27:57;102567.47;;;-1.26;100.00
13420;BME280;6781;58.440;15.470;2023-04-07T06:30:24;102573.44;;;-1.19;100.00
13420;BME280;6781;58.440;15.470;2023-04-07T06:32:53;102581.94;;;-1.08;100.00
13420;BME280;6781;58.440;15.470;2023-04-07T06:35:21;102578.53;;;-1.03;100.00
13420;BME280;6781;58.440;15.470;2023-04-07T06:37:50;102585.34;;;-1.06;100.00
13420;BME280;6781;58.440;15.470;2023-04-07T06:40:17;102590.44;;;-1.05;100.00
13420;BME280;6781;58.440;15.470;2023-04-07T06:42:46;102610.81;;;-0.91;100.00
13420;BME280;6781;58.440;15.470;2023-04-07T06:45:13;102622.69;;;-0.90;100.00
13420;BME280;6781;58.440;15.470;2023-04-07T06:47:39;102621.88;;;-0.83;100.00
13420;BME280;6781;58.440;15.470;2023-04-07T06:50:07;102629.50;;;-0.74;100.00
13420;BME280;6781;58.440;15.470;2023-04-07T06:52:36;102639.72;;;-0.61;100.00
13420;BME280;6781;58.440;15.470;2023-04-07T06:55:03;102646.50;;;-0.54;100.00
13420;BME280;6781;58.440;15.470;2023-04-07T06:57:30;102654.16;;;-0.45;100.00
13420;BME280;6781;58.440;15.470;2023-04-07T06:59:58;102666.06;;;-0.37;100.00
13420;BME280;6781;58.440;15.470;2023-04-07T07:02:25;102669.44;;;-0.24;100.00
13420;BME280;6781;58.440;15.470;2023-04-07T07:04:53;102676.25;;;-0.15;100.00
13420;BME280;6781;58.440;15.470;2023-04-07T07:07:20;102683.03;;;-0.04;100.00
13420;BME280;6781;58.440;15.470;2023-04-07T07:09:50;102694.03;;;0.11;100.00
13420;BME280;6781;58.440;15.470;2023-04-07T07:12:22;102686.38;;;0.17;100.00
13420;BME280;6781;58.440;15.470;2023-04-07T07:18:07;102694.88;;;0.25;100.00
13420;BME280;6781;58.440;15.470;2023-04-07T07:20:44;102708.47;;;0.33;100.00
13420;BME280;6781;58.440;15.470;2023-04-07T07:23:32;102718.63;;;0.44;100.00
13420;BME280;6781;58.440;15.470;2023-04-07T07:26:02;102728.00;;;0.37;100.00
13420;BME280;6781;58.440;15.470;2023-04-07T07:28:29;102738.22;;;0.29;100.00
13420;BME280;6781;58.440;15.470;2023-04-07T07:30:57;102758.63;;;0.37;100.00
13420;BME280;6781;58.440;15.470;2023-04-07T07:33:30;102770.53;;;0.53;100.00
13420;BME280;6781;58.440;15.470;2023-04-07T07:36:25;102785.00;;;0.42;100.00
13420;BME280;6781;58.440;15.470;2023-04-07T07:38:53;102792.66;;;0.48;100.00
13420;BME280;6781;58.440;15.470;2023-04-07T07:41:34;102805.41;;;0.50;100.00
13420;BME280;6781;58.440;15.470;2023-04-07T07:46:34;102828.38;;;0.63;100.00
13420;BME280;6781;58.440;15.470;2023-04-07T07:49:16;102829.22;;;0.59;100.00
13420;BME280;6781;58.440;15.470;2023-04-07T08:03:15;102851.31;;;0.82;100.00
13420;BME280;6781;58.440;15.470;2023-04-07T08:05:48;102860.69;;;0.89;100.00
13420;BME280;6781;58.440;15.470;2023-04-07T08:08:19;102874.28;;;1.03;100.00
13420;BME280;6781;58.440;15.470;2023-04-07T08:10:47;102862.38;;;0.84;100.00
13420;BME280;6781;58.440;15.470;2023-04-07T08:16:34;102881.91;;;1.14;100.00
13420;BME280;6781;58.440;15.470;2023-04-07T08:19:20;102877.69;;;1.04;100.00
13420;BME280;6781;58.440;15.470;2023-04-07T08:30:53;102899.69;;;1.47;100.00
13420;BME280;6781;58.440;15.470;2023-04-07T08:33:21;102900.50;;;1.55;100.00
13420;BME280;6781;58.440;15.470;2023-04-07T08:35:47;102892.00;;;1.53;100.00
13420;BME280;6781;58.440;15.470;2023-04-07T08:38:14;102904.63;;;1.82;100.00
13420;BME280;6781;58.440;15.470;2023-04-07T08:40:44;102884.19;;;1.79;100.00
13420;BME280;6781;58.440;15.470;2023-04-07T08:43:13;102867.25;;;1.63;100.00
13420;BME280;6781;58.440;15.470;2023-04-07T08:45:49;102870.50;;;1.83;100.00
13420;BME280;6781;58.440;15.470;2023-04-07T08:48:17;102872.16;;;1.93;100.00
13420;BME280;6781;58.440;15.470;2023-04-07T08:50:54;102868.75;;;1.94;100.00
13420;BME280;6781;58.440;15.470;2023-04-07T08:53:23;102851.88;;;1.69;100.00
13420;BME280;6781;58.440;15.470;2023-04-07T08:55:53;102850.94;;;1.76;100.00
13420;BME280;6781;58.440;15.470;2023-04-07T09:07:34;102856.81;;;1.93;100.00
13420;BME280;6781;58.440;15.470;2023-04-07T09:10:02;102853.41;;;1.94;100.00
13420;BME280;6781;58.440;15.470;2023-04-07T09:12:29;102846.59;;;1.90;100.00
13420;BME280;6781;58.440;15.470;2023-04-07T09:14:56;102846.44;;;2.12;100.00
13420;BME280;6781;58.440;15.470;2023-04-07T09:17:23;102841.25;;;2.24;100.00
13420;BME280;6781;58.440;15.470;2023-04-07T09:19:51;102826.75;;;2.21;100.00
13420;BME280;6781;58.440;15.470;2023-04-07T09:22:28;102846.19;;;2.45;100.00
13420;BME280;6781;58.440;15.470;2023-04-07T09:25:08;102829.19;;;2.38;100.00
13420;BME280;6781;58.440;15.470;2023-04-07T09:27:35;102815.56;;;2.33;100.00
13420;BME280;6781;58.440;15.470;2023-04-07T09:30:11;102806.97;;;2.40;100.00
13420;BME280;6781;58.440;15.470;2023-04-07T09:32:41;102803.47;;;2.50;100.00
13420;BME280;6781;58.440;15.470;2023-04-07T09:35:08;102797.31;;;2.67;100.00
13420;BME280;6781;58.440;15.470;2023-04-07T09:37:37;102799.81;;;2.73;100.00
13420;BME280;6781;58.440;15.470;2023-04-07T09:40:05;102794.59;;;2.83;100.00
13420;BME280;6781;58.440;15.470;2023-04-07T09:42:32;102782.78;;;2.69;100.00
13420;BME280;6781;58.440;15.470;2023-04-07T09:45:01;102774.09;;;2.82;100.00
13420;BME280;6781;58.440;15.470;2023-04-07T09:47:28;102763.06;;;2.77;100.00
13420;BME280;6781;58.440;15.470;2023-04-07T09:49:55;102768.78;;;3.00;100.00
13420;BME280;6781;58.440;15.470;2023-04-07T09:52:24;102764.31;;;3.16;100.00
13420;BME280;6781;58.440;15.470;2023-04-07T09:54:54;102757.56;;;3.09;100.00
13420;BME280;6781;58.440;15.470;2023-04-07T09:57:22;102744.81;;;3.04;100.00
13420;BME280;6781;58.440;15.470;2023-04-07T09:59:49;102741.28;;;3.11;100.00
13420;BME280;6781;58.440;15.470;2023-04-07T10:02:17;102734.13;;;3.35;100.00
13420;BME280;6781;58.440;15.470;2023-04-07T10:04:43;102729.78;;;3.41;100.00
13420;BME280;6781;58.440;15.470;2023-04-07T10:07:11;102708.63;;;3.25;100.00
13420;BME280;6781;58.440;15.470;2023-04-07T10:09:38;102710.16;;;3.39;100.00
13420;BME280;6781;58.440;15.470;2023-04-07T10:12:09;102693.09;;;3.35;100.00
13420;BME280;6781;58.440;15.470;2023-04-07T10:14:40;102685.34;;;3.39;100.00
13420;BME280;6781;58.440;15.470;2023-04-07T10:17:11;102681.94;;;3.39;100.00
13420;BME280;6781;58.440;15.470;2023-04-07T10:19:42;102669.66;;;3.56;100.00
13420;BME280;6781;58.440;15.470;2023-04-07T10:22:11;102657.94;;;3.43;100.00
13420;BME280;6781;58.440;15.470;2023-04-07T10:24:43;102659.63;;;3.44;100.00
13420;BME280;6781;58.440;15.470;2023-04-07T10:27:15;102656.75;;;3.62;100.00
13420;BME280;6781;58.440;15.470;2023-04-07T10:29:43;102658.44;;;3.63;100.00
13420;BME280;6781;58.440;15.470;2023-04-07T10:32:13;102657.28;;;3.81;100.00
13420;BME280;6781;58.440;15.470;2023-04-07T10:34:59;102646.44;;;3.65;100.00
13420;BME280;6781;58.440;15.470;2023-04-07T10:37:27;102630.91;;;3.73;100.00
13420;BME280;6781;58.440;15.470;2023-04-07T10:42:47;102627.66;;;3.63;100.00
13420;BME280;6781;58.440;15.470;2023-04-07T10:45:13;102630.72;;;3.83;100.00
13420;BME280;6781;58.440;15.470;2023-04-07T10:50:22;102604.22;;;3.81;100.00
13420;BME280;6781;58.440;15.470;2023-04-07T10:53:04;102600.19;;;3.68;100.00
13420;BME280;6781;58.440;15.470;2023-04-07T10:55:33;102596.75;;;3.69;100.00
13420;BME280;6781;58.440;15.470;2023-04-07T10:58:14;102596.47;;;3.84;100.00
13420;BME280;6781;58.440;15.470;2023-04-07T11:00:41;102581.25;;;3.75;100.00
13420;BME280;6781;58.440;15.470;2023-04-07T11:03:09;102586.16;;;3.87;100.00
13420;BME280;6781;58.440;15.470;2023-04-07T11:05:38;102581.03;;;3.87;100.00
13420;BME280;6781;58.440;15.470;2023-04-07T11:08:05;102568.31;;;3.81;100.00
13420;BME280;6781;58.440;15.470;2023-04-07T11:10:32;102566.53;;;3.85;100.00
13420;BME280;6781;58.440;15.470;2023-04-07T11:13:04;102563.06;;;3.87;100.00
13420;BME280;6781;58.440;15.470;2023-04-07T11:15:32;102560.00;;;4.12;100.00
13420;BME280;6781;58.440;15.470;2023-04-07T11:18:06;102559.00;;;4.19;100.00
13420;BME280;6781;58.440;15.470;2023-04-07T11:20:39;102544.97;;;3.93;100.00
13420;BME280;6781;58.440;15.470;2023-04-07T11:23:06;102546.41;;;4.07;100.00
13420;BME280;6781;58.440;15.470;2023-04-07T11:25:40;102539.34;;;4.18;100.00
13420;BME280;6781;58.440;15.470;2023-04-07T11:28:09;102527.50;;;4.11;100.00
13420;BME280;6781;58.440;15.470;2023-04-07T11:30:43;102530.97;;;4.10;100.00
13420;BME280;6781;58.440;15.470;2023-04-07T11:33:18;102529.13;;;4.15;100.00
13420;BME280;6781;58.440;15.470;2023-04-07T11:35:53;102521.28;;;4.22;100.00
13420;BME280;6781;58.440;15.470;2023-04-07T11:38:27;102517.03;;;4.21;100.00
13420;BME280;6781;58.440;15.470;2023-04-07T11:40:55;102511.72;;;4.29;100.00
13420;BME280;6781;58.440;15.470;2023-04-07T11:43:22;102504.97;;;4.25;100.00
13420;BME280;6781;58.440;15.470;2023-04-07T11:46:05;102499.41;;;4.43;100.00
13420;BME280;6781;58.440;15.470;2023-04-07T11:48:32;102484.28;;;4.31;100.00
13420;BME280;6781;58.440;15.470;2023-04-07T11:51:00;102483.47;;;4.29;100.00
13420;BME280;6781;58.440;15.470;2023-04-07T11:53:27;102483.06;;;4.47;100.00
13420;BME280;6781;58.440;15.470;2023-04-07T11:56:01;102477.59;;;4.61;100.00
13420;BME280;6781;58.440;15.470;2023-04-07T11:58:34;102466.34;;;4.67;100.00
13420;BME280;6781;58.440;15.470;2023-04-07T12:01:01;102466.56;;;4.57;100.00
13420;BME280;6781;58.440;15.470;2023-04-07T12:03:35;102449.50;;;4.53;100.00
13420;BME280;6781;58.440;15.470;2023-04-07T12:06:04;102450.88;;;4.68;100.00
13420;BME280;6781;58.440;15.470;2023-04-07T12:08:36;102442.31;;;4.68;100.00
13420;BME280;6781;58.440;15.470;2023-04-07T12:11:03;102442.75;;;4.85;100.00
13420;BME280;6781;58.440;15.470;2023-04-07T12:13:30;102432.50;;;4.83;100.00
13420;BME280;6781;58.440;15.470;2023-04-07T12:15:57;102426.22;;;4.95;100.00
13420;BME280;6781;58.440;15.470;2023-04-07T12:18:24;102417.28;;;5.08;100.00
13420;BME280;6781;58.440;15.470;2023-04-07T12:20:56;102407.25;;;4.99;100.00
13420;BME280;6781;58.440;15.470;2023-04-07T12:23:23;102408.78;;;5.06;100.00
13420;BME280;6781;58.440;15.470;2023-04-07T12:25:50;102391.16;;;4.93;100.00
13420;BME280;6781;58.440;15.470;2023-04-07T12:28:17;102392.63;;;5.01;100.00
13420;BME280;6781;58.440;15.470;2023-04-07T12:30:43;102389.06;;;5.07;100.00
13420;BME280;6781;58.440;15.470;2023-04-07T12:33:10;102378.78;;;5.07;100.00
13420;BME280;6781;58.440;15.470;2023-04-07T12:35:37;102364.44;;;4.98;100.00
13420;BME280;6781;58.440;15.470;2023-04-07T12:38:06;102363.41;;;5.04;100.00
13420;BME280;6781;58.440;15.470;2023-04-07T12:40:32;102366.03;;;5.02;100.00
13420;BME280;6781;58.440;15.470;2023-04-07T12:43:06;102355.00;;;4.99;100.00
13420;BME280;6781;58.440;15.470;2023-04-07T12:45:32;102357.69;;;5.23;100.00
13420;BME280;6781;58.440;15.470;2023-04-07T12:48:04;102349.91;;;5.27;100.00
13420;BME280;6781;58.440;15.470;2023-04-07T12:50:31;102352.13;;;5.09;100.00
13420;BME280;6781;58.440;15.470;2023-04-07T12:53:04;102355.03;;;5.27;100.00
13420;BME280;6781;58.440;15.470;2023-04-07T12:55:58;102355.34;;;5.17;100.00
13420;BME280;6781;58.440;15.470;2023-04-07T12:58:25;102347.81;;;5.10;100.00
13420;BME280;6781;58.440;15.470;2023-04-07T13:00:54;102349.41;;;4.83;100.00
13420;BME280;6781;58.440;15.470;2023-04-07T13:03:25;102360.38;;;4.89;100.00
13420;BME280;6781;58.440;15.470;2023-04-07T13:05:53;102354.47;;;4.86;100.00
13420;BME280;6781;58.440;15.470;2023-04-07T13:08:20;102364.00;;;5.13;100.00
13420;BME280;6781;58.440;15.470;2023-04-07T13:10:50;102147.25;;;3.56;100.00
13420;BME280;6781;58.440;15.470;2023-04-07T13:13:18;102354.41;;;4.89;100.00
13420;BME280;6781;58.440;15.470;2023-04-07T13:15:45;102349.00;;;4.98;100.00
13420;BME280;6781;58.440;15.470;2023-04-07T13:18:12;102357.47;;;5.31;100.00
13420;BME280;6781;58.440;15.470;2023-04-07T13:26:40;102339.91;;;5.17;100.00
13420;BME280;6781;58.440;15.470;2023-04-07T13:29:17;102338.34;;;4.81;100.00
13420;BME280;6781;58.440;15.470;2023-04-07T13:32:08;102289.91;;;4.97;100.00
13420;BME280;6781;58.440;15.470;2023-04-07T13:34:49;102337.59;;;5.08;100.00
13420;BME280;6781;58.440;15.470;2023-04-07T13:37:22;102330.13;;;4.99;100.00
13420;BME280;6781;58.440;15.470;2023-04-07T13:39:50;102328.38;;;5.29;100.00
13420;BME280;6781;58.440;15.470;2023-04-07T13:42:19;102322.78;;;5.16;100.00
13420;BME280;6781;58.440;15.470;2023-04-07T13:45:00;102316.78;;;5.45;100.00
13420;BME280;6781;58.440;15.470;2023-04-07T13:47:54;102314.81;;;5.24;100.00
13420;BME280;6781;58.440;15.470;2023-04-07T13:50:40;102308.56;;;5.33;100.00
13420;BME280;6781;58.440;15.470;2023-04-07T13:53:35;102304.66;;;4.90;100.00
13420;BME280;6781;58.440;15.470;2023-04-07T13:56:46;102313.38;;;5.15;100.00
13420;BME280;6781;58.440;15.470;2023-04-07T13:59:54;102302.38;;;5.10;100.00
13420;BME280;6781;58.440;15.470;2023-04-07T14:02:16;102307.31;;;5.18;100.00